createdAt,value
2022-08-10T00:01:54.874Z,20.32
2022-08-10T00:04:22.836Z,20.26
2022-08-10T00:06:54.220Z,20.19
2022-08-10T00:09:22.233Z,20.12
2022-08-10T00:11:48.808Z,20.22
2022-08-10T00:14:16.175Z,20.16
2022-08-10T00:16:42.797Z,20.16
2022-08-10T00:19:09.806Z,20.25
2022-08-10T00:21:37.177Z,20.26
2022-08-10T00:24:04.103Z,20.08
2022-08-10T00:27:52.985Z,20.24
2022-08-10T00:29:17.486Z,20.15
2022-08-10T00:31:58.278Z,20.15
2022-08-10T00:34:27.313Z,20.16
2022-08-10T00:36:53.784Z,20.13
2022-08-10T00:39:20.590Z,20.12
2022-08-10T00:42:06.897Z,19.97
2022-08-10T00:44:49.987Z,19.86
2022-08-10T00:47:36.219Z,19.89
2022-08-10T00:50:05.651Z,19.80
2022-08-10T00:52:33.889Z,19.82
2022-08-10T00:55:03.057Z,19.76
2022-08-10T00:57:30.352Z,19.78
2022-08-10T00:59:58.668Z,19.75
2022-08-10T01:02:28.351Z,19.77
2022-08-10T01:05:00.963Z,19.59
2022-08-10T01:08:19.278Z,19.74
2022-08-10T01:11:02.736Z,19.69
2022-08-10T01:13:44.626Z,19.64
2022-08-10T01:16:14.019Z,19.68
2022-08-10T01:18:53.872Z,19.57
2022-08-10T01:21:40.162Z,19.54
2022-08-10T01:24:50.715Z,19.43
2022-08-10T01:27:42.026Z,19.43
2022-08-10T01:30:11.215Z,19.33
2022-08-10T01:32:51.663Z,19.20
2022-08-10T01:35:31.100Z,19.14
2022-08-10T01:38:06.699Z,18.92
2022-08-10T01:40:41.109Z,18.81
2022-08-10T01:43:11.111Z,18.84
2022-08-10T01:45:44.944Z,18.78
2022-08-10T01:48:28.341Z,18.93
2022-08-10T01:51:09.156Z,18.95
2022-08-10T01:53:41.838Z,18.94
2022-08-10T01:56:12.176Z,18.99
2022-08-10T01:58:39.701Z,18.73
2022-08-10T02:01:11.026Z,18.82
2022-08-10T02:04:04.928Z,18.88
2022-08-10T02:06:37.846Z,18.96
2022-08-10T02:09:07.767Z,18.95
2022-08-10T02:12:06.254Z,18.99
2022-08-10T02:14:34.283Z,18.89
2022-08-10T02:17:05.435Z,18.84
2022-08-10T02:19:35.503Z,18.83
2022-08-10T02:22:35.320Z,18.78
2022-08-10T02:24:51.809Z,18.69
2022-08-10T02:27:20.574Z,18.76
2022-08-10T02:29:48.988Z,18.85
2022-08-10T02:32:36.083Z,18.84
2022-08-10T02:35:05.962Z,18.81
2022-08-10T02:37:37.562Z,18.73
2022-08-10T02:40:04.847Z,18.65
2022-08-10T02:45:23.851Z,18.59
2022-08-10T02:45:33.906Z,18.53
2022-08-10T02:48:07.361Z,18.55
2022-08-10T02:50:35.890Z,18.59
2022-08-10T02:53:55.344Z,18.64
2022-08-10T02:56:29.967Z,18.49
2022-08-10T02:59:07.146Z,18.55
2022-08-10T03:01:37.944Z,18.58
2022-08-10T03:04:07.885Z,18.49
2022-08-10T03:06:39.839Z,18.49
2022-08-10T03:09:08.601Z,18.32
2022-08-10T03:12:36.685Z,18.30
2022-08-10T03:14:25.570Z,18.29
2022-08-10T03:16:55.444Z,18.27
2022-08-10T03:20:33.398Z,18.14
2022-08-10T03:22:12.606Z,18.16
2022-08-10T03:24:41.258Z,18.14
2022-08-10T03:27:08.434Z,18.09
2022-08-10T03:30:28.171Z,18.01
2022-08-10T03:32:24.160Z,18.00
2022-08-10T03:34:52.031Z,18.08
2022-08-10T03:37:18.542Z,18.03
2022-08-10T03:39:45.375Z,18.02
2022-08-10T03:42:13.008Z,18.00
2022-08-10T03:44:41.919Z,17.87
2022-08-10T03:47:15.236Z,17.97
2022-08-10T03:49:46.774Z,17.91
2022-08-10T03:52:14.687Z,17.79
2022-08-10T03:54:42.418Z,17.74
2022-08-10T03:57:09.556Z,17.80
2022-08-10T03:59:36.988Z,17.76
2022-08-10T04:02:45.761Z,17.83
2022-08-10T04:04:53.340Z,17.76
2022-08-10T04:07:19.904Z,17.82
2022-08-10T04:09:55.175Z,17.74
2022-08-10T04:12:22.864Z,17.90
2022-08-10T04:14:52.403Z,17.84
2022-08-10T04:18:03.083Z,17.80
2022-08-10T04:20:18.056Z,17.86
2022-08-10T04:22:48.548Z,17.78
2022-08-10T04:25:15.257Z,17.89
2022-08-10T04:27:43.245Z,17.87
2022-08-10T04:30:10.313Z,17.84
2022-08-10T04:32:38.001Z,17.83
2022-08-10T04:35:08.082Z,17.79
2022-08-10T04:37:37.244Z,17.75
2022-08-10T04:40:28.279Z,17.65
2022-08-10T04:42:55.711Z,17.80
2022-08-10T04:45:50.193Z,17.84
2022-08-10T04:48:41.044Z,17.82
2022-08-10T04:51:02.875Z,17.79
2022-08-10T04:53:30.990Z,17.75
2022-08-10T04:55:57.790Z,17.71
2022-08-10T04:58:24.421Z,17.71
2022-08-10T05:00:51.046Z,17.65
2022-08-10T05:03:17.585Z,17.50
2022-08-10T05:05:44.237Z,17.70
2022-08-10T05:08:10.716Z,17.56
2022-08-10T05:10:37.275Z,17.63
2022-08-10T05:13:03.918Z,17.64
2022-08-10T05:15:30.446Z,17.69
2022-08-10T05:18:06.920Z,17.68
2022-08-10T05:20:38.931Z,17.76
2022-08-10T05:23:05.567Z,17.81
2022-08-10T05:25:32.842Z,17.79
2022-08-10T05:28:06.494Z,17.83
2022-08-10T05:30:34.265Z,17.83
2022-08-10T05:33:05.088Z,17.91
2022-08-10T05:35:55.541Z,17.99
2022-08-10T05:38:23.002Z,17.98
2022-08-10T05:40:50.479Z,18.00
2022-08-10T05:43:19.205Z,18.06
2022-08-10T05:46:19.852Z,18.06
2022-08-10T05:48:55.411Z,18.11
2022-08-10T05:51:22.956Z,17.98
2022-08-10T05:54:01.649Z,18.09
2022-08-10T05:56:53.871Z,18.08
2022-08-10T06:00:32.895Z,18.23
2022-08-10T06:02:30.841Z,18.40
2022-08-10T06:05:04.150Z,18.44
2022-08-10T06:07:31.426Z,18.52
2022-08-10T06:10:01.154Z,18.68
2022-08-10T06:12:37.555Z,18.68
2022-08-10T06:15:21.636Z,19.02
2022-08-10T06:18:01.564Z,19.80
2022-08-10T06:20:31.693Z,19.97
2022-08-10T06:23:04.546Z,19.85
2022-08-10T06:26:10.216Z,19.78
2022-08-10T06:28:20.026Z,19.67
2022-08-10T06:30:49.175Z,19.54
2022-08-10T06:33:17.182Z,19.70
2022-08-10T06:35:44.748Z,19.71
2022-08-10T06:38:12.305Z,19.73
2022-08-10T06:40:43.124Z,19.85
2022-08-10T06:43:12.451Z,20.02
2022-08-10T06:45:45.667Z,20.15
2022-08-10T06:48:41.568Z,20.33
2022-08-10T06:51:18.133Z,20.48
2022-08-10T06:53:52.941Z,20.43
2022-08-10T06:56:37.777Z,20.38
2022-08-10T06:59:34.268Z,20.56
2022-08-10T07:02:29.436Z,20.77
2022-08-10T07:05:05.401Z,20.80
2022-08-10T07:07:40.167Z,20.86
2022-08-10T07:10:09.489Z,21.11
2022-08-10T07:12:38.397Z,21.16
2022-08-10T07:15:09.000Z,21.36
2022-08-10T07:17:39.530Z,21.47
2022-08-10T07:20:12.107Z,21.62
2022-08-10T07:23:26.890Z,21.72
2022-08-10T07:25:30.990Z,21.79
2022-08-10T07:28:02.162Z,21.86
2022-08-10T07:30:31.560Z,22.03
2022-08-10T07:33:00.538Z,22.09
2022-08-10T07:35:32.068Z,22.23
2022-08-10T07:38:06.559Z,22.34
2022-08-10T07:40:35.240Z,22.33
2022-08-10T07:43:03.195Z,22.45
2022-08-10T07:45:33.670Z,22.59
2022-08-10T07:48:29.716Z,22.82
2022-08-10T07:51:01.908Z,22.72
2022-08-10T07:53:34.989Z,22.77
2022-08-10T07:56:16.611Z,22.90
2022-08-10T07:58:57.238Z,23.16
2022-08-10T08:01:29.276Z,23.21
2022-08-10T08:04:05.275Z,23.13
2022-08-10T08:06:40.291Z,23.19
2022-08-10T08:09:07.277Z,23.43
2022-08-10T08:11:36.590Z,23.60
2022-08-10T08:14:06.090Z,23.79
2022-08-10T08:16:34.986Z,23.85
2022-08-10T08:19:27.955Z,24.01
2022-08-10T08:24:14.786Z,24.12
2022-08-10T08:24:39.563Z,24.20
2022-08-10T08:27:07.977Z,24.20
2022-08-10T08:29:37.208Z,24.23
2022-08-10T08:32:05.394Z,24.58
2022-08-10T08:34:32.988Z,24.62
2022-08-10T08:37:01.042Z,24.61
2022-08-10T08:39:28.157Z,24.77
2022-08-10T08:42:38.545Z,25.06
2022-08-10T08:45:31.529Z,25.06
2022-08-10T08:48:30.160Z,25.19
2022-08-10T08:51:11.405Z,25.43
2022-08-10T08:54:03.440Z,25.43
2022-08-10T08:56:54.092Z,25.62
2022-08-10T08:59:48.856Z,25.90
2022-08-10T09:02:39.560Z,25.88
2022-08-10T09:05:20.340Z,25.91
2022-08-10T09:08:03.297Z,26.05
2022-08-10T09:10:51.870Z,26.11
2022-08-10T09:13:41.247Z,26.30
2022-08-10T09:16:32.317Z,26.41
2022-08-10T09:18:58.783Z,26.48
2022-08-10T09:21:28.462Z,26.58
2022-08-10T09:24:05.906Z,26.68
2022-08-10T09:26:41.881Z,26.91
2022-08-10T09:29:14.388Z,27.08
2022-08-10T09:32:54.890Z,27.03
2022-08-10T09:36:25.571Z,27.27
2022-08-10T09:38:40.829Z,27.43
2022-08-10T09:41:25.887Z,27.48
2022-08-10T09:43:57.238Z,27.69
2022-08-10T09:46:42.550Z,27.93
2022-08-10T09:49:54.902Z,28.06
2022-08-10T09:52:34.994Z,28.02
2022-08-10T09:56:19.250Z,28.07
2022-08-10T09:58:28.707Z,28.39
2022-08-10T10:01:22.446Z,28.60
2022-08-10T10:04:33.468Z,28.99
2022-08-10T10:07:04.426Z,28.79
2022-08-10T10:09:48.259Z,28.83
2022-08-10T10:12:34.715Z,29.01
2022-08-10T10:15:31.812Z,29.15
2022-08-10T10:18:05.164Z,29.14
2022-08-10T10:20:52.762Z,29.15
2022-08-10T10:23:38.386Z,29.07
2022-08-10T10:26:20.444Z,29.08
2022-08-10T10:29:56.484Z,29.27
2022-08-10T10:32:36.619Z,29.55
2022-08-10T10:35:15.484Z,29.77
2022-08-10T10:38:01.614Z,29.67
2022-08-10T10:40:38.610Z,29.68
2022-08-10T10:43:32.748Z,29.69
2022-08-10T10:46:43.694Z,29.73
2022-08-10T10:49:54.873Z,29.70
2022-08-10T10:52:49.698Z,29.73
2022-08-10T10:55:49.983Z,29.90
2022-08-10T10:58:53.776Z,30.02
2022-08-10T11:01:23.152Z,30.09
2022-08-10T11:04:08.491Z,30.08
2022-08-10T11:06:51.352Z,29.98
2022-08-10T11:10:05.498Z,30.12
2022-08-10T11:12:33.231Z,30.23
2022-08-10T11:15:25.038Z,30.60
2022-08-10T11:18:01.555Z,30.44
2022-08-10T11:20:42.195Z,30.65
2022-08-10T11:23:39.719Z,30.66
2022-08-10T11:26:49.421Z,30.76
2022-08-10T11:29:24.453Z,30.72
2022-08-10T11:32:00.121Z,30.95
2022-08-10T11:34:48.150Z,30.75
2022-08-10T11:38:30.099Z,30.95
2022-08-10T11:40:44.058Z,30.73
2022-08-10T11:43:19.087Z,30.79
2022-08-10T11:46:16.494Z,31.03
2022-08-10T11:49:00.852Z,31.19
2022-08-10T11:51:47.610Z,31.26
2022-08-10T11:54:30.656Z,31.34
2022-08-10T11:57:02.567Z,31.52
2022-08-10T11:59:57.888Z,31.55
2022-08-10T12:02:44.646Z,31.51
2022-08-10T12:05:21.360Z,31.60
2022-08-10T12:10:10.884Z,31.54
2022-08-10T12:10:45.665Z,31.59
2022-08-10T12:13:37.886Z,31.96
2022-08-10T12:16:08.184Z,32.06
2022-08-10T12:19:03.189Z,32.26
2022-08-10T12:21:43.034Z,32.27
2022-08-10T12:24:26.226Z,32.44
2022-08-10T12:27:02.728Z,32.35
2022-08-10T12:29:46.286Z,32.19
2022-08-10T12:32:56.072Z,32.15
2022-08-10T12:35:33.773Z,31.94
2022-08-10T12:38:23.229Z,31.88
2022-08-10T12:40:59.511Z,32.13
2022-08-10T12:44:06.787Z,32.23
2022-08-10T12:46:41.558Z,32.21
2022-08-10T12:49:23.755Z,32.51
2022-08-10T12:52:06.517Z,32.57
2022-08-10T12:54:38.280Z,32.71
2022-08-10T12:57:10.295Z,32.77
2022-08-10T12:59:43.320Z,32.60
2022-08-10T13:02:14.980Z,32.67
2022-08-10T13:04:43.840Z,32.62
2022-08-10T13:08:25.218Z,32.86
2022-08-10T13:10:06.402Z,32.83
2022-08-10T13:12:44.889Z,32.76
2022-08-10T13:15:45.424Z,32.83
2022-08-10T13:18:18.250Z,33.04
2022-08-10T13:20:51.939Z,33.16
2022-08-10T13:23:25.022Z,32.96
2022-08-10T13:25:55.258Z,32.89
2022-08-10T13:28:36.365Z,32.86
2022-08-10T13:31:17.410Z,33.10
2022-08-10T13:34:39.031Z,33.21
2022-08-10T13:36:49.703Z,33.24
2022-08-10T13:39:23.658Z,33.08
2022-08-10T13:41:53.295Z,33.03
2022-08-10T13:44:34.688Z,33.38
2022-08-10T13:47:01.398Z,33.51
2022-08-10T13:49:30.070Z,33.41
2022-08-10T13:51:58.615Z,33.55
2022-08-10T13:54:29.229Z,33.80
2022-08-10T13:56:57.044Z,33.59
2022-08-10T14:00:34.983Z,33.57
2022-08-10T14:02:21.755Z,33.70
2022-08-10T14:04:48.462Z,33.71
2022-08-10T14:07:17.335Z,33.78
2022-08-10T14:09:47.648Z,33.96
2022-08-10T14:12:16.024Z,33.88
2022-08-10T14:14:45.218Z,34.12
2022-08-10T14:17:22.294Z,34.19
2022-08-10T14:19:57.427Z,34.16
2022-08-10T14:22:40.233Z,33.86
2022-08-10T14:25:11.542Z,33.91
2022-08-10T14:28:03.281Z,34.03
2022-08-10T14:30:31.742Z,34.29
2022-08-10T14:33:04.398Z,34.27
2022-08-10T14:36:21.954Z,34.38
2022-08-10T14:38:26.758Z,34.21
2022-08-10T14:40:56.980Z,34.15
2022-08-10T14:43:34.709Z,34.56
2022-08-10T14:46:07.233Z,34.31
2022-08-10T14:48:46.457Z,34.25
2022-08-10T14:51:17.719Z,34.27
2022-08-10T14:53:51.842Z,34.30
2022-08-10T14:56:26.172Z,34.31
2022-08-10T14:59:06.964Z,34.12
2022-08-10T15:02:00.563Z,34.11
2022-08-10T15:04:29.303Z,34.45
2022-08-10T15:07:11.806Z,34.54
2022-08-10T15:10:00.047Z,34.41
2022-08-10T15:12:36.406Z,34.52
2022-08-10T15:15:06.302Z,34.41
2022-08-10T15:17:39.486Z,34.67
2022-08-10T15:20:20.318Z,34.62
2022-08-10T15:22:50.934Z,34.51
2022-08-10T15:25:24.674Z,34.65
2022-08-10T15:27:56.186Z,34.77
2022-08-10T15:30:32.325Z,34.61
2022-08-10T15:33:57.579Z,34.76
2022-08-10T15:36:37.482Z,34.91
2022-08-10T15:40:22.576Z,34.87
2022-08-10T15:42:01.765Z,34.64
2022-08-10T15:44:38.267Z,34.83
2022-08-10T15:47:15.173Z,35.04
2022-08-10T15:49:50.248Z,35.42
2022-08-10T15:53:00.201Z,35.54
2022-08-10T15:55:44.487Z,36.02
2022-08-10T15:58:39.875Z,36.07
2022-08-10T16:02:14.287Z,36.19
2022-08-10T16:04:36.626Z,36.08
2022-08-10T16:07:06.166Z,36.07
2022-08-10T16:10:22.197Z,36.28
2022-08-10T16:12:34.512Z,36.73
2022-08-10T16:15:10.238Z,36.98
2022-08-10T16:17:54.663Z,36.98
2022-08-10T16:20:31.083Z,37.43
2022-08-10T16:23:01.173Z,37.66
2022-08-10T16:25:48.517Z,38.03
2022-08-10T16:28:19.998Z,38.34
2022-08-10T16:30:54.129Z,38.61
2022-08-10T16:33:28.062Z,38.31
2022-08-10T16:36:17.353Z,38.51
2022-08-10T16:38:46.945Z,38.18
2022-08-10T16:41:52.066Z,38.16
2022-08-10T16:44:03.931Z,38.39
2022-08-10T16:46:32.725Z,38.83
2022-08-10T16:49:00.635Z,38.88
2022-08-10T16:51:27.393Z,38.84
2022-08-10T16:53:55.041Z,39.01
2022-08-10T16:56:30.241Z,39.08
2022-08-10T16:58:58.810Z,39.61
2022-08-10T17:01:28.145Z,40.06
2022-08-10T17:04:05.588Z,40.82
2022-08-10T17:06:42.943Z,40.90
2022-08-10T17:09:16.982Z,40.87
2022-08-10T17:11:47.954Z,40.40
2022-08-10T17:14:14.675Z,40.36
2022-08-10T17:16:44.607Z,40.65
2022-08-10T17:19:16.999Z,40.93
2022-08-10T17:21:51.676Z,41.01
2022-08-10T17:24:23.976Z,41.40
2022-08-10T17:26:51.373Z,42.05
2022-08-10T17:29:58.948Z,42.17
2022-08-10T17:32:20.969Z,41.87
2022-08-10T17:34:54.237Z,41.90
2022-08-10T17:37:24.565Z,41.77
2022-08-10T17:40:07.086Z,40.90
2022-08-10T17:42:36.274Z,41.03
2022-08-10T17:45:04.459Z,40.72
2022-08-10T17:47:33.239Z,40.06
2022-08-10T17:50:00.917Z,37.91
2022-08-10T17:52:31.668Z,35.57
2022-08-10T17:55:08.845Z,34.26
2022-08-10T17:57:40.595Z,33.42
2022-08-10T18:00:15.971Z,32.78
2022-08-10T18:02:47.252Z,32.35
2022-08-10T18:05:14.876Z,31.97
2022-08-10T18:07:55.832Z,31.88
2022-08-10T18:10:23.063Z,31.79
2022-08-10T18:12:53.244Z,31.75
2022-08-10T18:15:23.536Z,31.68
2022-08-10T18:17:59.231Z,31.44
2022-08-10T18:20:33.926Z,31.18
2022-08-10T18:23:02.363Z,31.05
2022-08-10T18:25:36.543Z,30.79
2022-08-10T18:28:08.039Z,30.73
2022-08-10T18:30:45.611Z,30.52
2022-08-10T18:33:14.193Z,30.39
2022-08-10T18:35:43.788Z,30.41
2022-08-10T18:38:12.942Z,30.35
2022-08-10T18:40:43.706Z,30.26
2022-08-10T18:44:05.947Z,30.28
2022-08-10T18:46:05.334Z,30.09
2022-08-10T18:48:42.332Z,29.76
2022-08-10T18:51:12.449Z,29.72
2022-08-10T18:53:52.346Z,29.69
2022-08-10T18:56:27.864Z,29.60
2022-08-10T18:59:09.035Z,29.42
2022-08-10T19:01:54.043Z,29.50
2022-08-10T19:04:29.764Z,29.42
2022-08-10T19:07:12.829Z,29.31
2022-08-10T19:10:02.383Z,29.16
2022-08-10T19:12:38.186Z,29.09
2022-08-10T19:15:17.213Z,29.08
2022-08-10T19:18:10.125Z,28.85
2022-08-10T19:21:01.256Z,29.23
2022-08-10T19:23:37.047Z,29.32
2022-08-10T19:26:44.149Z,29.20
2022-08-10T19:30:07.928Z,29.22
2022-08-10T19:32:44.392Z,29.19
2022-08-10T19:36:02.992Z,29.21
2022-08-10T19:38:37.557Z,29.15
2022-08-10T19:41:44.858Z,28.92
2022-08-10T19:44:36.191Z,28.92
2022-08-10T19:47:06.988Z,28.73
2022-08-10T19:49:53.781Z,28.62
2022-08-10T19:52:39.729Z,28.60
2022-08-10T19:55:15.469Z,28.46
2022-08-10T19:58:05.520Z,28.42
2022-08-10T20:00:58.000Z,28.25
2022-08-10T20:03:37.170Z,28.03
2022-08-10T20:06:22.677Z,27.81
2022-08-10T20:09:06.637Z,27.88
2022-08-10T20:11:57.786Z,27.82
2022-08-10T20:14:46.230Z,27.84
2022-08-10T20:17:29.522Z,27.77
2022-08-10T20:20:30.977Z,27.57
2022-08-10T20:23:23.207Z,27.43
2022-08-10T20:26:19.709Z,27.36
2022-08-10T20:29:05.523Z,27.31
2022-08-10T20:31:54.245Z,27.25
2022-08-10T20:34:23.652Z,27.28
2022-08-10T20:37:01.187Z,27.29
2022-08-10T20:39:42.260Z,27.30
2022-08-10T20:42:16.501Z,27.28
2022-08-10T20:45:22.590Z,27.25
2022-08-10T20:48:07.066Z,27.07
2022-08-10T20:50:37.069Z,27.10
2022-08-10T20:53:10.506Z,26.99
2022-08-10T20:56:02.195Z,26.94
2022-08-10T20:58:43.275Z,26.95
2022-08-10T21:02:06.868Z,26.72
2022-08-10T21:04:44.493Z,26.54
2022-08-10T21:07:44.042Z,26.64
2022-08-10T21:10:36.451Z,26.49
2022-08-10T21:13:41.733Z,26.37
2022-08-10T21:16:28.714Z,26.21
2022-08-10T21:19:21.040Z,26.23
2022-08-10T21:21:59.432Z,26.17
2022-08-10T21:24:38.872Z,26.08
2022-08-10T21:27:23.712Z,26.06
2022-08-10T21:30:09.722Z,25.93
2022-08-10T21:32:48.742Z,25.82
2022-08-10T21:35:37.056Z,25.81
2022-08-10T21:41:18.603Z,25.53
2022-08-10T21:44:20.879Z,25.36
2022-08-10T21:47:39.532Z,25.16
2022-08-10T21:50:30.840Z,25.17
2022-08-10T21:56:55.491Z,24.90
2022-08-10T21:59:57.034Z,24.85
2022-08-10T22:02:50.499Z,24.76
2022-08-10T22:05:42.950Z,24.70
2022-08-10T22:08:31.456Z,24.66
2022-08-10T22:11:17.575Z,24.65
2022-08-10T22:14:06.751Z,24.70
2022-08-10T22:17:01.199Z,24.71
2022-08-10T22:19:51.874Z,24.66
2022-08-10T22:22:56.062Z,24.68
2022-08-10T22:26:15.925Z,24.67
2022-08-10T22:29:12.097Z,24.62
2022-08-10T22:31:24.935Z,25.59
2022-08-10T22:31:25.493Z,25.08
2022-08-10T22:32:33.344Z,24.58
2022-08-10T22:35:36.806Z,24.33
2022-08-10T22:38:41.940Z,24.36
2022-08-10T22:41:44.246Z,24.36
2022-08-10T22:44:34.267Z,24.20
2022-08-10T22:47:19.665Z,24.23
2022-08-10T22:49:51.857Z,24.14
2022-08-10T22:52:23.490Z,24.11
2022-08-10T22:55:40.641Z,24.05
2022-08-10T22:58:25.760Z,24.06
2022-08-10T23:01:07.825Z,23.91
2022-08-10T23:03:47.414Z,23.83
2022-08-10T23:06:18.364Z,23.71
2022-08-10T23:08:52.922Z,23.74
2022-08-10T23:11:26.654Z,23.69
2022-08-10T23:14:00.511Z,23.69
2022-08-10T23:16:49.005Z,23.68
2022-08-10T23:19:43.586Z,23.65
2022-08-10T23:22:16.118Z,23.60
2022-08-10T23:24:55.085Z,23.59
2022-08-10T23:27:38.753Z,23.51
2022-08-10T23:30:17.538Z,23.50
2022-08-10T23:32:51.378Z,23.41
2022-08-10T23:36:30.876Z,23.38
2022-08-10T23:38:09.280Z,23.40
2022-08-10T23:40:36.957Z,23.34
2022-08-10T23:43:05.097Z,23.24
2022-08-10T23:45:53.329Z,23.19
2022-08-10T23:48:38.209Z,23.08
2022-08-10T23:51:16.926Z,23.10
2022-08-10T23:53:46.357Z,22.99
2022-08-10T23:56:16.556Z,23.01
2022-08-10T23:58:48.813Z,23.02
